sensor_id;sensor_type;location;lat;lon;timestamp;pressure;altitude;pressure_sealevel;temperature;humidity
28630;BME280;15817;42.130;24.762;2023-04-16T00:01:57;99370.38;;;14.98;57.40
28630;BME280;15817;42.130;24.762;2023-04-16T00:04:22;99370.56;;;14.92;57.61
28630;BME280;15817;42.130;24.762;2023-04-16T00:06:48;99369.63;;;14.93;57.57
28630;BME280;15817;42.130;24.762;2023-04-16T00:09:14;99369.69;;;14.91;57.91
28630;BME280;15817;42.130;24.762;2023-04-16T00:11:39;99377.69;;;14.93;58.10
28630;BME280;15817;42.130;24.762;2023-04-16T00:14:05;99363.66;;;14.84;57.70
28630;BME280;15817;42.130;24.762;2023-04-16T00:16:31;99369.72;;;14.90;57.66
28630;BME280;15817;42.130;24.762;2023-04-16T00:18:57;99360.03;;;14.87;57.62
28630;BME280;15817;42.130;24.762;2023-04-16T00:21:23;99356.63;;;14.80;57.66
28630;BME280;15817;42.130;24.762;2023-04-16T00:23:49;99374.16;;;14.91;57.72
28630;BME280;15817;42.130;24.762;2023-04-16T00:26:14;99385.75;;;14.91;57.60
28630;BME280;15817;42.130;24.762;2023-04-16T00:28:43;99384.88;;;14.91;57.37
28630;BME280;15817;42.130;24.762;2023-04-16T00:31:09;99380.56;;;14.87;57.64
28630;BME280;15817;42.130;24.762;2023-04-16T00:33:34;99388.47;;;14.90;57.73
28630;BME280;15817;42.130;24.762;2023-04-16T00:36:00;99378.94;;;14.81;57.70
28630;BME280;15817;42.130;24.762;2023-04-16T00:38:26;99383.31;;;14.83;57.71
28630;BME280;15817;42.130;24.762;2023-04-16T00:40:55;99407.41;;;14.83;58.05
28630;BME280;15817;42.130;24.762;2023-04-16T00:43:25;99410.25;;;14.77;58.13
28630;BME280;15817;42.130;24.762;2023-04-16T00:45:52;99398.75;;;14.75;58.78
28630;BME280;15817;42.130;24.762;2023-04-16T00:48:19;99401.53;;;14.72;58.82
28630;BME280;15817;42.130;24.762;2023-04-16T00:50:45;99401.69;;;14.66;59.07
28630;BME280;15817;42.130;24.762;2023-04-16T00:53:12;99399.13;;;14.63;59.09
28630;BME280;15817;42.130;24.762;2023-04-16T00:55:38;99394.56;;;14.65;59.29
28630;BME280;15817;42.130;24.762;2023-04-16T00:58:04;99390.22;;;14.63;59.50
28630;BME280;15817;42.130;24.762;2023-04-16T01:00:30;99382.06;;;14.66;59.55
28630;BME280;15817;42.130;24.762;2023-04-16T01:02:58;99383.75;;;14.70;59.86
28630;BME280;15817;42.130;24.762;2023-04-16T01:05:24;99381.66;;;14.79;59.69
28630;BME280;15817;42.130;24.762;2023-04-16T01:07:51;99382.56;;;14.78;59.48
28630;BME280;15817;42.130;24.762;2023-04-16T01:10:17;99373.03;;;14.70;59.88
28630;BME280;15817;42.130;24.762;2023-04-16T01:12:42;99375.16;;;14.59;60.11
28630;BME280;15817;42.130;24.762;2023-04-16T01:15:09;99378.72;;;14.59;60.31
28630;BME280;15817;42.130;24.762;2023-04-16T01:17:35;99370.69;;;14.59;60.33
28630;BME280;15817;42.130;24.762;2023-04-16T01:20:01;99392.00;;;14.62;60.28
28630;BME280;15817;42.130;24.762;2023-04-16T01:22:27;99399.28;;;14.57;60.44
28630;BME280;15817;42.130;24.762;2023-04-16T01:24:53;99388.81;;;14.49;60.81
28630;BME280;15817;42.130;24.762;2023-04-16T01:27:19;99387.97;;;14.47;61.25
28630;BME280;15817;42.130;24.762;2023-04-16T01:29:45;99396.84;;;14.49;61.57
28630;BME280;15817;42.130;24.762;2023-04-16T01:32:11;99381.72;;;14.48;61.60
28630;BME280;15817;42.130;24.762;2023-04-16T01:34:39;99381.78;;;14.45;61.54
28630;BME280;15817;42.130;24.762;2023-04-16T01:37:05;99385.38;;;14.44;61.62
28630;BME280;15817;42.130;24.762;2023-04-16T01:39:31;99375.59;;;14.43;61.74
28630;BME280;15817;42.130;24.762;2023-04-16T01:41:57;99375.72;;;14.40;61.79
28630;BME280;15817;42.130;24.762;2023-04-16T01:44:22;99380.16;;;14.41;62.24
28630;BME280;15817;42.130;24.762;2023-04-16T01:46:48;99377.59;;;14.35;62.17
28630;BME280;15817;42.130;24.762;2023-04-16T01:49:14;99387.34;;;14.39;62.47
28630;BME280;15817;42.130;24.762;2023-04-16T01:51:40;99381.13;;;14.37;62.79
28630;BME280;15817;42.130;24.762;2023-04-16T01:54:06;99374.94;;;14.35;62.72
28630;BME280;15817;42.130;24.762;2023-04-16T01:56:32;99383.75;;;14.39;62.24
28630;BME280;15817;42.130;24.762;2023-04-16T01:58:58;99377.53;;;14.38;62.39
28630;BME280;15817;42.130;24.762;2023-04-16T02:01:28;99369.50;;;14.38;62.52
28630;BME280;15817;42.130;24.762;2023-04-16T02:03:54;99360.72;;;14.33;62.83
28630;BME280;15817;42.130;24.762;2023-04-16T02:06:20;99359.06;;;14.29;63.08
28630;BME280;15817;42.130;24.762;2023-04-16T02:08:45;99364.59;;;14.23;63.34
28630;BME280;15817;42.130;24.762;2023-04-16T02:11:13;99355.72;;;14.21;63.65
28630;BME280;15817;42.130;24.762;2023-04-16T02:13:39;99361.03;;;14.23;63.65
28630;BME280;15817;42.130;24.762;2023-04-16T02:16:05;99361.03;;;14.23;63.32
28630;BME280;15817;42.130;24.762;2023-04-16T02:18:50;99375.47;;;14.17;63.25
28630;BME280;15817;42.130;24.762;2023-04-16T02:21:18;99370.28;;;14.11;63.47
28630;BME280;15817;42.130;24.762;2023-04-16T02:23:45;99371.22;;;14.08;63.38
28630;BME280;15817;42.130;24.762;2023-04-16T02:26:12;99369.38;;;14.12;63.37
28630;BME280;15817;42.130;24.762;2023-04-16T02:28:38;99367.59;;;14.11;63.30
28630;BME280;15817;42.130;24.762;2023-04-16T02:31:05;99378.31;;;14.11;63.34
28630;BME280;15817;42.130;24.762;2023-04-16T02:33:38;99371.38;;;14.04;63.55
28630;BME280;15817;42.130;24.762;2023-04-16T02:36:04;99380.31;;;14.03;63.77
28630;BME280;15817;42.130;24.762;2023-04-16T02:38:30;99378.69;;;13.97;63.92
28630;BME280;15817;42.130;24.762;2023-04-16T02:40:56;99369.00;;;13.93;64.12
28630;BME280;15817;42.130;24.762;2023-04-16T02:43:22;99376.19;;;13.91;64.31
28630;BME280;15817;42.130;24.762;2023-04-16T02:45:48;99385.06;;;13.93;64.73
28630;BME280;15817;42.130;24.762;2023-04-16T02:48:13;99369.97;;;13.91;64.35
28630;BME280;15817;42.130;24.762;2023-04-16T02:50:39;99382.38;;;13.93;64.45
28630;BME280;15817;42.130;24.762;2023-04-16T02:53:05;99382.41;;;13.92;64.33
28630;BME280;15817;42.130;24.762;2023-04-16T02:55:32;99383.28;;;13.92;64.52
28630;BME280;15817;42.130;24.762;2023-04-16T02:57:58;99387.81;;;13.90;64.50
28630;BME280;15817;42.130;24.762;2023-04-16T03:00:23;99388.75;;;13.88;64.68
28630;BME280;15817;42.130;24.762;2023-04-16T03:02:49;99399.53;;;13.85;64.70
28630;BME280;15817;42.130;24.762;2023-04-16T03:05:15;99382.88;;;13.73;64.53
28630;BME280;15817;42.130;24.762;2023-04-16T03:07:41;99382.88;;;13.73;64.81
28630;BME280;15817;42.130;24.762;2023-04-16T03:10:07;99376.78;;;13.70;64.77
28630;BME280;15817;42.130;24.762;2023-04-16T03:12:33;99389.19;;;13.72;64.60
28630;BME280;15817;42.130;24.762;2023-04-16T03:15:00;99382.16;;;13.68;63.77
28630;BME280;15817;42.130;24.762;2023-04-16T03:17:25;99390.97;;;13.72;63.97
28630;BME280;15817;42.130;24.762;2023-04-16T03:19:51;99394.56;;;13.71;63.82
28630;BME280;15817;42.130;24.762;2023-04-16T03:22:18;99395.38;;;13.73;63.86
28630;BME280;15817;42.130;24.762;2023-04-16T03:24:43;99392.81;;;13.70;63.82
28630;BME280;15817;42.130;24.762;2023-04-16T03:27:09;99388.47;;;13.64;63.78
28630;BME280;15817;42.130;24.762;2023-04-16T03:29:36;99402.69;;;13.66;63.93
28630;BME280;15817;42.130;24.762;2023-04-16T03:32:06;99394.00;;;13.58;64.01
28630;BME280;15817;42.130;24.762;2023-04-16T03:34:32;99401.19;;;13.56;64.20
28630;BME280;15817;42.130;24.762;2023-04-16T03:36:58;99409.13;;;13.59;64.37
28630;BME280;15817;42.130;24.762;2023-04-16T03:39:24;99414.47;;;13.59;64.28
28630;BME280;15817;42.130;24.762;2023-04-16T03:41:51;99395.88;;;13.55;64.51
28630;BME280;15817;42.130;24.762;2023-04-16T03:44:17;99398.63;;;13.50;64.38
28630;BME280;15817;42.130;24.762;2023-04-16T03:46:44;99412.78;;;13.55;64.73
28630;BME280;15817;42.130;24.762;2023-04-16T03:49:09;99414.53;;;13.56;64.67
28630;BME280;15817;42.130;24.762;2023-04-16T03:51:35;99419.03;;;13.54;64.72
28630;BME280;15817;42.130;24.762;2023-04-16T03:54:01;99409.28;;;13.52;64.62
28630;BME280;15817;42.130;24.762;2023-04-16T03:56:27;99428.81;;;13.55;64.65
28630;BME280;15817;42.130;24.762;2023-04-16T03:58:54;99427.97;;;13.53;64.92
28630;BME280;15817;42.130;24.762;2023-04-16T04:01:20;99426.97;;;13.57;64.87
28630;BME280;15817;42.130;24.762;2023-04-16T04:03:46;99420.78;;;13.55;65.33
28630;BME280;15817;42.130;24.762;2023-04-16T04:06:12;99415.44;;;13.55;65.29
28630;BME280;15817;42.130;24.762;2023-04-16T04:08:38;99426.94;;;13.59;65.49
28630;BME280;15817;42.130;24.762;2023-04-16T04:11:04;99424.31;;;13.57;65.83
28630;BME280;15817;42.130;24.762;2023-04-16T04:13:32;99425.22;;;13.56;66.21
28630;BME280;15817;42.130;24.762;2023-04-16T04:15:57;99434.09;;;13.58;66.67
28630;BME280;15817;42.130;24.762;2023-04-16T04:18:25;99429.66;;;13.57;67.11
28630;BME280;15817;42.130;24.762;2023-04-16T04:20:52;99427.06;;;13.54;67.73
28630;BME280;15817;42.130;24.762;2023-04-16T04:23:21;99420.00;;;13.50;67.91
28630;BME280;15817;42.130;24.762;2023-04-16T04:25:47;99420.00;;;13.50;68.10
28630;BME280;15817;42.130;24.762;2023-04-16T04:28:13;99439.47;;;13.57;68.39
28630;BME280;15817;42.130;24.762;2023-04-16T04:30:38;99433.38;;;13.50;68.41
28630;BME280;15817;42.130;24.762;2023-04-16T04:33:05;99441.31;;;13.53;68.41
28630;BME280;15817;42.130;24.762;2023-04-16T04:35:31;99431.47;;;13.55;68.25
28630;BME280;15817;42.130;24.762;2023-04-16T04:37:58;99417.41;;;13.49;68.09
28630;BME280;15817;42.130;24.762;2023-04-16T04:40:25;99415.63;;;13.49;67.70
28630;BME280;15817;42.130;24.762;2023-04-16T04:42:51;99427.19;;;13.50;67.91
28630;BME280;15817;42.130;24.762;2023-04-16T04:45:17;99430.69;;;13.50;67.93
28630;BME280;15817;42.130;24.762;2023-04-16T04:47:43;99420.06;;;13.49;67.70
28630;BME280;15817;42.130;24.762;2023-04-16T04:50:09;99426.19;;;13.52;67.96
28630;BME280;15817;42.130;24.762;2023-04-16T04:52:35;99427.91;;;13.56;67.49
28630;BME280;15817;42.130;24.762;2023-04-16T04:55:01;99423.50;;;13.54;67.37
28630;BME280;15817;42.130;24.762;2023-04-16T04:57:28;99423.47;;;13.55;67.86
28630;BME280;15817;42.130;24.762;2023-04-16T04:59:54;99427.00;;;13.56;68.88
28630;BME280;15817;42.130;24.762;2023-04-16T05:02:21;99435.94;;;13.55;70.34
28630;BME280;15817;42.130;24.762;2023-04-16T05:04:46;99427.19;;;13.50;70.94
28630;BME280;15817;42.130;24.762;2023-04-16T05:07:12;99433.25;;;13.56;71.40
28630;BME280;15817;42.130;24.762;2023-04-16T05:09:38;99431.59;;;13.51;71.34
28630;BME280;15817;42.130;24.762;2023-04-16T05:12:04;99431.66;;;13.49;73.31
28630;BME280;15817;42.130;24.762;2023-04-16T05:14:30;99422.69;;;13.50;73.45
28630;BME280;15817;42.130;24.762;2023-04-16T05:16:55;99433.28;;;13.55;72.59
28630;BME280;15817;42.130;24.762;2023-04-16T05:19:21;99437.66;;;13.57;72.80
28630;BME280;15817;42.130;24.762;2023-04-16T05:21:47;99444.69;;;13.61;72.24
28630;BME280;15817;42.130;24.762;2023-04-16T05:24:12;99449.88;;;13.67;71.87
28630;BME280;15817;42.130;24.762;2023-04-16T05:26:38;99450.72;;;13.69;72.20
28630;BME280;15817;42.130;24.762;2023-04-16T05:29:04;99444.53;;;13.67;71.33
28630;BME280;15817;42.130;24.762;2023-04-16T05:31:30;99450.69;;;13.71;70.96
28630;BME280;15817;42.130;24.762;2023-04-16T05:33:56;99440.91;;;13.70;71.36
28630;BME280;15817;42.130;24.762;2023-04-16T05:36:23;99444.25;;;13.78;70.97
28630;BME280;15817;42.130;24.762;2023-04-16T05:38:49;99440.69;;;13.77;71.13
28630;BME280;15817;42.130;24.762;2023-04-16T05:41:15;99452.03;;;13.87;70.67
28630;BME280;15817;42.130;24.762;2023-04-16T05:43:44;99451.88;;;13.93;70.29
28630;BME280;15817;42.130;24.762;2023-04-16T05:46:10;99461.56;;;13.97;69.95
28630;BME280;15817;42.130;24.762;2023-04-16T05:48:36;99440.38;;;13.90;70.20
28630;BME280;15817;42.130;24.762;2023-04-16T05:51:06;99442.91;;;13.96;69.96
28630;BME280;15817;42.130;24.762;2023-04-16T05:53:34;99447.47;;;13.92;69.03
28630;BME280;15817;42.130;24.762;2023-04-16T05:56:00;99449.19;;;13.95;67.88
28630;BME280;15817;42.130;24.762;2023-04-16T05:58:26;99456.28;;;13.96;68.03
28630;BME280;15817;42.130;24.762;2023-04-16T06:00:53;99437.78;;;13.87;68.17
28630;BME280;15817;42.130;24.762;2023-04-16T06:03:19;99452.84;;;13.91;67.88
28630;BME280;15817;42.130;24.762;2023-04-16T06:05:45;99444.91;;;13.88;67.27
28630;BME280;15817;42.130;24.762;2023-04-16T06:08:10;99444.00;;;13.87;67.76
28630;BME280;15817;42.130;24.762;2023-04-16T06:10:36;99444.84;;;13.89;66.99
28630;BME280;15817;42.130;24.762;2023-04-16T06:13:03;99434.19;;;13.88;67.10
28630;BME280;15817;42.130;24.762;2023-04-16T06:15:28;99438.56;;;13.92;67.10
28630;BME280;15817;42.130;24.762;2023-04-16T06:17:54;99438.41;;;13.96;67.12
28630;BME280;15817;42.130;24.762;2023-04-16T06:20:20;99433.03;;;13.98;67.47
28630;BME280;15817;42.130;24.762;2023-04-16T06:22:46;99421.53;;;13.96;67.27
28630;BME280;15817;42.130;24.762;2023-04-16T06:25:15;99435.59;;;14.02;67.15
28630;BME280;15817;42.130;24.762;2023-04-16T06:27:42;99434.78;;;13.99;66.90
28630;BME280;15817;42.130;24.762;2023-04-16T06:30:12;99429.56;;;13.96;66.82
28630;BME280;15817;42.130;24.762;2023-04-16T06:32:42;99421.41;;;13.99;66.88
28630;BME280;15817;42.130;24.762;2023-04-16T06:35:08;99414.47;;;13.93;66.87
28630;BME280;15817;42.130;24.762;2023-04-16T06:37:36;99426.66;;;14.03;66.98
28630;BME280;15817;42.130;24.762;2023-04-16T06:40:03;99417.56;;;14.09;66.54
28630;BME280;15817;42.130;24.762;2023-04-16T06:42:29;99430.00;;;14.11;66.64
28630;BME280;15817;42.130;24.762;2023-04-16T06:44:55;99419.38;;;14.08;66.13
28630;BME280;15817;42.130;24.762;2023-04-16T06:47:21;99435.31;;;14.13;66.15
28630;BME280;15817;42.130;24.762;2023-04-16T06:49:46;99440.47;;;14.19;66.77
28630;BME280;15817;42.130;24.762;2023-04-16T06:52:15;99428.97;;;14.17;66.87
28630;BME280;15817;42.130;24.762;2023-04-16T06:54:43;99423.63;;;14.17;66.07
28630;BME280;15817;42.130;24.762;2023-04-16T06:57:09;99435.91;;;14.23;66.38
28630;BME280;15817;42.130;24.762;2023-04-16T06:59:38;99427.03;;;14.22;66.65
28630;BME280;15817;42.130;24.762;2023-04-16T07:02:04;99427.75;;;14.29;66.38
28630;BME280;15817;42.130;24.762;2023-04-16T07:04:30;99444.41;;;14.38;66.14
28630;BME280;15817;42.130;24.762;2023-04-16T07:06:56;99430.16;;;14.39;65.99
28630;BME280;15817;42.130;24.762;2023-04-16T07:09:24;99422.13;;;14.39;65.69
28630;BME280;15817;42.130;24.762;2023-04-16T07:11:52;99436.84;;;14.54;66.30
28630;BME280;15817;42.130;24.762;2023-04-16T07:14:30;99423.47;;;14.54;65.58
28630;BME280;15817;42.130;24.762;2023-04-16T07:16:55;99426.78;;;14.64;65.47
28630;BME280;15817;42.130;24.762;2023-04-16T07:19:21;99411.63;;;14.63;65.08
28630;BME280;15817;42.130;24.762;2023-04-16T07:21:47;99416.63;;;14.75;65.20
28630;BME280;15817;42.130;24.762;2023-04-16T07:24:15;99418.03;;;14.87;64.39
28630;BME280;15817;42.130;24.762;2023-04-16T07:26:41;99424.63;;;15.04;64.68
28630;BME280;15817;42.130;24.762;2023-04-16T07:29:09;99424.25;;;15.16;64.48
28630;BME280;15817;42.130;24.762;2023-04-16T07:31:35;99418.78;;;15.19;63.79
28630;BME280;15817;42.130;24.762;2023-04-16T07:34:01;99428.25;;;15.31;64.20
28630;BME280;15817;42.130;24.762;2023-04-16T07:36:27;99416.44;;;15.37;64.25
28630;BME280;15817;42.130;24.762;2023-04-16T07:38:52;99416.25;;;15.43;63.90
28630;BME280;15817;42.130;24.762;2023-04-16T07:41:18;99413.81;;;15.63;63.67
28630;BME280;15817;42.130;24.762;2023-04-16T07:43:44;99414.69;;;15.90;63.09
28630;BME280;15817;42.130;24.762;2023-04-16T07:46:10;99405.28;;;16.03;62.34
28630;BME280;15817;42.130;24.762;2023-04-16T07:48:38;99399.69;;;16.09;61.94
28630;BME280;15817;42.130;24.762;2023-04-16T07:51:04;99406.75;;;16.12;61.50
28630;BME280;15817;42.130;24.762;2023-04-16T07:53:30;99403.28;;;16.33;61.54
28630;BME280;15817;42.130;24.762;2023-04-16T07:55:56;99396.19;;;16.55;60.58
28630;BME280;15817;42.130;24.762;2023-04-16T07:58:22;99388.78;;;16.62;60.00
28630;BME280;15817;42.130;24.762;2023-04-16T08:00:50;99395.69;;;16.69;59.36
28630;BME280;15817;42.130;24.762;2023-04-16T08:03:16;99398.81;;;16.57;58.96
28630;BME280;15817;42.130;24.762;2023-04-16T08:05:42;99392.25;;;16.65;59.51
28630;BME280;15817;42.130;24.762;2023-04-16T08:08:08;99406.53;;;16.66;59.25
28630;BME280;15817;42.130;24.762;2023-04-16T08:10:34;99406.75;;;16.60;59.35
28630;BME280;15817;42.130;24.762;2023-04-16T08:13:00;99403.97;;;16.63;59.74
28630;BME280;15817;42.130;24.762;2023-04-16T08:15:26;99401.28;;;16.63;59.91
28630;BME280;15817;42.130;24.762;2023-04-16T08:17:52;99408.63;;;16.58;59.93
28630;BME280;15817;42.130;24.762;2023-04-16T08:20:21;99396.19;;;16.55;59.95
28630;BME280;15817;42.130;24.762;2023-04-16T08:22:47;99408.34;;;16.65;60.15
28630;BME280;15817;42.130;24.762;2023-04-16T08:25:13;99418.72;;;16.75;59.98
28630;BME280;15817;42.130;24.762;2023-04-16T08:27:40;99420.63;;;16.73;60.47
28630;BME280;15817;42.130;24.762;2023-04-16T08:30:06;99412.47;;;16.74;60.42
28630;BME280;15817;42.130;24.762;2023-04-16T08:32:32;99416.25;;;16.70;61.25
28630;BME280;15817;42.130;24.762;2023-04-16T08:34:58;99411.91;;;16.66;61.04
28630;BME280;15817;42.130;24.762;2023-04-16T08:37:24;99410.00;;;16.70;61.02
28630;BME280;15817;42.130;24.762;2023-04-16T08:39:50;99397.56;;;16.67;61.38
28630;BME280;15817;42.130;24.762;2023-04-16T08:42:28;99394.91;;;16.65;61.70
28630;BME280;15817;42.130;24.762;2023-04-16T08:45:06;99393.81;;;16.71;62.24
28630;BME280;15817;42.130;24.762;2023-04-16T08:47:34;99392.47;;;16.83;62.10
28630;BME280;15817;42.130;24.762;2023-04-16T08:50:03;99393.88;;;16.93;61.73
28630;BME280;15817;42.130;24.762;2023-04-16T08:52:30;99394.88;;;17.12;61.21
28630;BME280;15817;42.130;24.762;2023-04-16T08:55:21;99383.25;;;17.33;60.34
28630;BME280;15817;42.130;24.762;2023-04-16T08:57:51;99388.19;;;17.66;59.74
28630;BME280;15817;42.130;24.762;2023-04-16T09:00:19;99388.22;;;18.06;59.45
28630;BME280;15817;42.130;24.762;2023-04-16T09:02:48;99372.44;;;18.38;58.55
28630;BME280;15817;42.130;24.762;2023-04-16T09:05:15;99366.41;;;18.72;56.06
28630;BME280;15817;42.130;24.762;2023-04-16T09:07:45;99366.97;;;18.97;55.72
28630;BME280;15817;42.130;24.762;2023-04-16T09:10:13;99370.81;;;19.29;54.42
28630;BME280;15817;42.130;24.762;2023-04-16T09:12:42;99357.50;;;19.43;53.90
28630;BME280;15817;42.130;24.762;2023-04-16T09:15:13;99351.16;;;19.44;52.01
28630;BME280;15817;42.130;24.762;2023-04-16T09:17:39;99362.78;;;19.64;49.61
28630;BME280;15817;42.130;24.762;2023-04-16T09:20:07;99353.19;;;19.75;48.76
28630;BME280;15817;42.130;24.762;2023-04-16T09:22:36;99336.44;;;19.86;49.33
28630;BME280;15817;42.130;24.762;2023-04-16T09:25:03;99342.72;;;20.04;48.69
28630;BME280;15817;42.130;24.762;2023-04-16T09:27:37;99334.50;;;20.22;46.99
28630;BME280;15817;42.130;24.762;2023-04-16T09:30:20;99341.94;;;20.35;45.59
28630;BME280;15817;42.130;24.762;2023-04-16T09:32:47;99338.75;;;20.44;46.34
28630;BME280;15817;42.130;24.762;2023-04-16T09:35:13;99336.81;;;20.63;46.05
28630;BME280;15817;42.130;24.762;2023-04-16T09:37:40;99325.66;;;20.69;45.35
28630;BME280;15817;42.130;24.762;2023-04-16T09:40:08;99327.47;;;20.69;45.56
28630;BME280;15817;42.130;24.762;2023-04-16T09:42:43;99323.66;;;20.73;46.06
28630;BME280;15817;42.130;24.762;2023-04-16T09:45:16;99337.50;;;20.67;46.39
28630;BME280;15817;42.130;24.762;2023-04-16T09:47:44;99325.50;;;20.72;45.61
28630;BME280;15817;42.130;24.762;2023-04-16T09:50:15;99322.16;;;20.34;46.18
28630;BME280;15817;42.130;24.762;2023-04-16T09:52:43;99328.56;;;19.99;46.81
28630;BME280;15817;42.130;24.762;2023-04-16T09:55:12;99320.31;;;20.02;46.93
28630;BME280;15817;42.130;24.762;2023-04-16T09:57:38;99321.91;;;20.06;47.10
28630;BME280;15817;42.130;24.762;2023-04-16T10:00:07;99315.88;;;20.67;46.11
28630;BME280;15817;42.130;24.762;2023-04-16T10:02:39;99328.81;;;21.09;44.82
28630;BME280;15817;42.130;24.762;2023-04-16T10:05:08;99329.75;;;20.92;44.83
28630;BME280;15817;42.130;24.762;2023-04-16T10:07:35;99319.97;;;20.58;45.44
28630;BME280;15817;42.130;24.762;2023-04-16T10:10:05;99317.41;;;20.22;45.86
28630;BME280;15817;42.130;24.762;2023-04-16T10:12:33;99318.28;;;20.07;46.52
28630;BME280;15817;42.130;24.762;2023-04-16T10:15:02;99313.03;;;20.04;46.32
28630;BME280;15817;42.130;24.762;2023-04-16T10:17:30;99311.06;;;19.90;46.88
28630;BME280;15817;42.130;24.762;2023-04-16T10:19:59;99321.78;;;19.92;46.40
28630;BME280;15817;42.130;24.762;2023-04-16T10:22:28;99320.66;;;19.96;46.77
28630;BME280;15817;42.130;24.762;2023-04-16T10:24:54;99323.91;;;19.68;47.27
28630;BME280;15817;42.130;24.762;2023-04-16T10:27:21;99315.72;;;19.52;48.75
28630;BME280;15817;42.130;24.762;2023-04-16T10:29:47;99310.97;;;19.74;48.50
28630;BME280;15817;42.130;24.762;2023-04-16T10:32:14;99305.72;;;20.06;48.36
28630;BME280;15817;42.130;24.762;2023-04-16T10:34:41;99294.84;;;20.07;48.70
28630;BME280;15817;42.130;24.762;2023-04-16T10:37:07;99306.53;;;20.23;48.30
28630;BME280;15817;42.130;24.762;2023-04-16T10:39:36;99290.97;;;20.29;48.13
28630;BME280;15817;42.130;24.762;2023-04-16T10:42:11;99291.03;;;20.60;47.64
28630;BME280;15817;42.130;24.762;2023-04-16T10:44:39;99301.00;;;20.75;47.42
28630;BME280;15817;42.130;24.762;2023-04-16T10:47:14;99305.09;;;20.82;46.71
28630;BME280;15817;42.130;24.762;2023-04-16T10:49:40;99301.78;;;21.09;46.59
28630;BME280;15817;42.130;24.762;2023-04-16T10:52:14;99298.25;;;21.38;46.05
28630;BME280;15817;42.130;24.762;2023-04-16T10:54:45;99292.19;;;21.49;45.84
28630;BME280;15817;42.130;24.762;2023-04-16T10:57:17;99304.13;;;21.30;46.09
28630;BME280;15817;42.130;24.762;2023-04-16T10:59:45;99304.31;;;21.27;46.23
28630;BME280;15817;42.130;24.762;2023-04-16T11:02:17;99301.31;;;21.16;46.05
28630;BME280;15817;42.130;24.762;2023-04-16T11:04:55;99298.13;;;21.10;46.67
28630;BME280;15817;42.130;24.762;2023-04-16T11:07:33;99297.75;;;21.31;46.59
28630;BME280;15817;42.130;24.762;2023-04-16T11:10:04;99291.16;;;21.51;46.07
28630;BME280;15817;42.130;24.762;2023-04-16T11:12:56;99283.19;;;21.34;46.24
28630;BME280;15817;42.130;24.762;2023-04-16T11:15:28;99287.28;;;20.94;47.45
28630;BME280;15817;42.130;24.762;2023-04-16T11:17:56;99282.66;;;20.80;48.09
28630;BME280;15817;42.130;24.762;2023-04-16T11:20:28;99281.44;;;20.54;48.91
28630;BME280;15817;42.130;24.762;2023-04-16T11:22:55;99266.03;;;20.23;50.05
28630;BME280;15817;42.130;24.762;2023-04-16T11:25:28;99254.72;;;20.17;50.56
28630;BME280;15817;42.130;24.762;2023-04-16T11:27:55;99256.63;;;20.15;51.80
28630;BME280;15817;42.130;24.762;2023-04-16T11:30:33;99253.72;;;20.02;53.01
28630;BME280;15817;42.130;24.762;2023-04-16T11:35:38;99243.03;;;19.83;52.04
28630;BME280;15817;42.130;24.762;2023-04-16T11:38:05;99243.81;;;19.85;53.47
28630;BME280;15817;42.130;24.762;2023-04-16T11:40:32;99238.09;;;19.92;54.88
28630;BME280;15817;42.130;24.762;2023-04-16T11:43:14;99229.44;;;19.85;55.48
28630;BME280;15817;42.130;24.762;2023-04-16T11:45:57;99220.19;;;19.73;55.98
28630;BME280;15817;42.130;24.762;2023-04-16T11:48:24;99217.66;;;19.70;58.29
28630;BME280;15817;42.130;24.762;2023-04-16T11:50:57;99207.44;;;19.60;58.84
28630;BME280;15817;42.130;24.762;2023-04-16T11:53:23;99211.78;;;19.62;59.49
28630;BME280;15817;42.130;24.762;2023-04-16T11:55:49;99200.22;;;19.60;59.42
28630;BME280;15817;42.130;24.762;2023-04-16T11:58:20;99209.44;;;19.56;59.70
28630;BME280;15817;42.130;24.762;2023-04-16T12:00:48;99206.00;;;19.52;58.73
28630;BME280;15817;42.130;24.762;2023-04-16T12:03:17;99202.75;;;19.46;59.54
28630;BME280;15817;42.130;24.762;2023-04-16T12:05:43;99199.47;;;19.39;58.73
28630;BME280;15817;42.130;24.762;2023-04-16T12:08:10;99204.25;;;19.34;58.71
28630;BME280;15817;42.130;24.762;2023-04-16T12:10:52;99206.56;;;19.25;60.11
28630;BME280;15817;42.130;24.762;2023-04-16T12:13:18;99197.72;;;19.04;64.02
28630;BME280;15817;42.130;24.762;2023-04-16T12:15:52;99207.56;;;18.88;73.10
28630;BME280;15817;42.130;24.762;2023-04-16T12:18:22;99199.91;;;18.42;77.34
28630;BME280;15817;42.130;24.762;2023-04-16T12:20:51;99199.13;;;18.22;84.10
28630;BME280;15817;42.130;24.762;2023-04-16T12:23:31;99209.94;;;18.01;88.80
28630;BME280;15817;42.130;24.762;2023-04-16T12:25:57;99195.03;;;17.76;92.06
28630;BME280;15817;42.130;24.762;2023-04-16T12:28:28;99201.31;;;17.54;92.43
28630;BME280;15817;42.130;24.762;2023-04-16T12:30:54;99214.84;;;17.53;95.12
28630;BME280;15817;42.130;24.762;2023-04-16T12:33:20;99218.59;;;17.49;91.15
28630;BME280;15817;42.130;24.762;2023-04-16T12:35:46;99197.91;;;17.51;92.83
28630;BME280;15817;42.130;24.762;2023-04-16T12:38:12;99190.34;;;17.59;93.97
28630;BME280;15817;42.130;24.762;2023-04-16T12:40:39;99173.84;;;17.68;95.61
28630;BME280;15817;42.130;24.762;2023-04-16T12:43:06;99171.53;;;17.79;97.12
28630;BME280;15817;42.130;24.762;2023-04-16T12:45:33;99169.63;;;17.81;96.10
28630;BME280;15817;42.130;24.762;2023-04-16T12:47:58;99164.88;;;17.88;95.35
28630;BME280;15817;42.130;24.762;2023-04-16T12:50:24;99154.16;;;17.86;94.71
28630;BME280;15817;42.130;24.762;2023-04-16T12:52:54;99147.59;;;17.92;95.28
28630;BME280;15817;42.130;24.762;2023-04-16T12:55:19;99161.34;;;18.04;98.84